Wednesday, August 15, 2018, 11:58 PM EDT
Back to Local

K1P1, Plymouth, Plymouth Municipal Airport

Location: Plymouth, NH, United States Lat: 43.779
Local Time: 11:58 PM EDT ( 3:58 GMT) Lon: -71.754
Time Zone: US/Eastern Elev: 505 ft

Show me the last for .
Show Decoded

2018-08-15 23:35 METAR K1P1 160335Z AUTO 00000KT 10SM -RA SCT047 SCT060 SCT075 21/20 A2991 RMK
                 AO2 T02090195 =
2018-08-15 23:15 METAR K1P1 160315Z AUTO 00000KT 10SM -RA SCT120 21/20 A2990 RMK AO2 LTG DSNT N
                 AND E T02100195 =
2018-08-15 22:55 METAR K1P1 160255Z AUTO 00000KT 10SM SCT042 21/20 A2991 RMK AO2 LTG DSNT N
                 T02110195 =
2018-08-15 22:35 METAR K1P1 160235Z AUTO 00000KT 10SM CLR 22/20 A2991 RMK AO2 LTG DSNT N
                 T02150195 =
2018-08-15 22:15 METAR K1P1 160215Z AUTO 00000KT 10SM VCTS CLR 22/20 A2990 RMK AO2 LTG DSNT NW
                 T02160195 =
2018-08-15 21:55 METAR K1P1 160155Z AUTO 00000KT 10SM VCTS CLR 22/20 A2990 RMK AO2 LTG DSNT NW
                 T02170195 =
2018-08-15 21:35 METAR K1P1 160135Z AUTO 00000KT 10SM -RA CLR 22/20 A2990 RMK AO2 LTG DSNT W THRU
                 NE T02200196 =
2018-08-15 21:15 METAR K1P1 160115Z AUTO 00000KT 10SM -VCTSRA CLR 22/20 A2990 RMK AO2 LTG DSNT W
                 THRU NE T02210196 =
2018-08-15 20:55 METAR K1P1 160055Z AUTO 00000KT 10SM SCT070 22/20 A2989 RMK AO2 LTG DSNT N AND
                 NW T02180201 =
2018-08-15 20:35 METAR K1P1 160035Z AUTO 00000KT 10SM VCTS SCT070 22/20 A2989 RMK AO2 LTG DSNT N
                 AND NW T02200203 =
2018-08-15 20:15 METAR K1P1 160015Z AUTO 00000KT 10SM CLR 22/21 A2989 RMK AO2 LTG DSNT W THRU N
                 T02230205 =
2018-08-15 19:55 METAR K1P1 152355Z AUTO 00000KT 10SM CLR 23/21 A2988 RMK AO2 LTG DSNT W AND NW
                 T02270207 10297 20227 =
2018-08-15 19:35 METAR K1P1 152335Z AUTO 00000KT 10SM CLR 23/21 A2986 RMK AO2 LTG DSNT W AND NW
                 T02320208 =
2018-08-15 19:15 METAR K1P1 152315Z AUTO 00000KT 10SM CLR 24/21 A2986 RMK AO2 LTG DSNT NW
                 T02390210 =
2018-08-15 18:55 METAR K1P1 152255Z AUTO 00000KT 10SM CLR 25/21 A2985 RMK AO2 LTG DSNT NW
                 T02480209 =
2018-08-15 18:35 METAR K1P1 152235Z AUTO 00000KT 10SM CLR 27/20 A2984 RMK AO2 T02650197 =
2018-08-15 18:15 METAR K1P1 152215Z AUTO 00000KT 10SM CLR 28/19 A2984 RMK AO2 LTG DSNT NW
                 T02820194 =
2018-08-15 17:55 METAR K1P1 152155Z AUTO 00000KT 10SM CLR 29/18 A2984 RMK AO2 T02860180 =
2018-08-15 17:35 METAR K1P1 152135Z AUTO 00000KT 10SM CLR 29/18 A2983 RMK AO2 T02900184 =
2018-08-15 17:15 METAR K1P1 152115Z AUTO 00000KT 10SM CLR 29/18 A2983 RMK AO2 T02870183 =
2018-08-15 16:55 METAR K1P1 152055Z AUTO 32006KT 10SM SCT050 SCT065 28/18 A2983 RMK AO2 T02830183
                 =
2018-08-15 16:35 METAR K1P1 152035Z AUTO 33004KT 10SM SCT050 SCT065 29/18 A2983 RMK AO2 T02920180
                 =
2018-08-15 16:15 METAR K1P1 152015Z AUTO 33003KT 10SM SCT047 30/18 A2982 RMK AO2 T02970181 =
2018-08-15 15:55 METAR K1P1 151955Z AUTO 33004KT 10SM SCT047 SCT060 SCT070 29/19 A2982 RMK AO2
                 T02900187 =
2018-08-15 15:35 METAR K1P1 151935Z AUTO 32004KT 10SM CLR 29/18 A2982 RMK AO2 T02860184 =
2018-08-15 15:15 METAR K1P1 151915Z AUTO 29004KT 10SM SCT049 29/19 A2984 RMK AO2 LTG DSNT NE
                 T02900186 =
2018-08-15 14:55 METAR K1P1 151855Z AUTO 31003KT 10SM SCT049 28/18 A2984 RMK AO2 T02820184 =
2018-08-15 14:35 METAR K1P1 151835Z AUTO 31004KT 10SM SCT049 29/19 A2984 RMK AO2 T02850189 =
2018-08-15 14:15 METAR K1P1 151815Z AUTO 28005KT 10SM CLR 29/19 A2984 RMK AO2 T02850188 =
2018-08-15 13:55 METAR K1P1 151755Z AUTO 28006KT 10SM SCT040 28/19 A2984 RMK AO2 T02820188 10282
                 20195 =
2018-08-15 13:35 METAR K1P1 151735Z AUTO 25006KT 10SM SCT040 SCT046 SCT075 28/19 A2984 RMK AO2
                 T02800193 =
2018-08-15 13:15 METAR K1P1 151715Z AUTO 27006KT 10SM SCT038 SCT075 28/19 A2984 RMK AO2 T02760190
                 =
2018-08-15 12:55 METAR K1P1 151655Z AUTO 28006KT 10SM SCT038 28/19 A2984 RMK AO2 LTG DSNT NW
                 T02760194 =
2018-08-15 12:35 METAR K1P1 151635Z AUTO 27003KT 10SM SCT046 27/19 A2984 RMK AO2 T02690192 =
2018-08-15 12:15 METAR K1P1 151615Z AUTO 28009KT 10SM SCT042 BKN049 27/19 A2985 RMK AO2 LTG DSNT
                 N AND NW T02670192 =
2018-08-15 11:55 METAR K1P1 151555Z AUTO 27006KT 10SM SCT050 27/19 A2984 RMK AO2 T02700192 =
2018-08-15 11:35 METAR K1P1 151535Z AUTO 27005KT 10SM SCT050 27/20 A2985 RMK AO2 T02700195 =
2018-08-15 11:15 METAR K1P1 151515Z AUTO 28005KT 10SM SCT050 26/19 A2986 RMK AO2 LTG DSNT N
                 T02620190 =
2018-08-15 10:55 METAR K1P1 151455Z AUTO 29005KT 10SM CLR 26/19 A2986 RMK AO2 LTG DSNT NW
                 T02600191 =
2018-08-15 10:35 METAR K1P1 151435Z AUTO 28005KT 10SM CLR 25/19 A2986 RMK AO2 T02530188 =
2018-08-15 10:15 METAR K1P1 151415Z AUTO 28004KT 10SM CLR 24/19 A2986 RMK AO2 LTG DSNT NW
                 T02420189 =
2018-08-15 09:55 METAR K1P1 151355Z AUTO 28007KT 10SM CLR 24/19 A2986 RMK AO2 LTG DSNT NW
                 T02400190 =
2018-08-15 09:35 METAR K1P1 151335Z AUTO 29003KT 10SM CLR 24/19 A2985 RMK AO2 LTG DSNT NW
                 T02380190 =
2018-08-15 09:15 METAR K1P1 151315Z AUTO 00000KT 10SM CLR 23/19 A2985 RMK AO2 LTG DSNT N AND S
                 T02280192 =
2018-08-15 08:55 METAR K1P1 151255Z AUTO 00000KT 10SM SCT006 SCT016 22/19 A2984 RMK AO2 LTG DSNT
                 S AND NW T02160187 =
2018-08-15 08:35 METAR K1P1 151235Z AUTO 00000KT 10SM BKN006 20/19 A2984 RMK AO2 T02020186 =
2018-08-15 08:15 METAR K1P1 151215Z AUTO 00000KT 10SM BKN004 OVC015 20/19 A2984 RMK AO2 T01950185
                 =
2018-08-15 07:55 METAR K1P1 151155Z AUTO 00000KT 10SM SCT004 OVC015 20/19 A2984 RMK AO2 70003
                 T01950186 10195 20183 =
2018-08-15 07:35 METAR K1P1 151135Z AUTO 00000KT 10SM SCT002 OVC015 19/19 A2984 RMK AO2 T01910185
                 =
2018-08-15 07:15 METAR K1P1 151115Z AUTO 00000KT 7SM BKN002 OVC017 19/18 A2984 RMK AO2 T01870180
                 =
2018-08-15 06:55 METAR K1P1 151055Z AUTO 00000KT 5SM BR SCT002 BKN017 19/18 A2984 RMK AO2
                 T01850178 =
2018-08-15 06:35 METAR K1P1 151035Z AUTO 00000KT 5SM BR SCT008 BKN019 19/18 A2983 RMK AO2
                 T01850177 =
2018-08-15 06:15 METAR K1P1 151015Z AUTO 30003KT 4SM BR SCT002 OVC008 19/18 A2983 RMK AO2
                 T01850178 =
2018-08-15 05:55 METAR K1P1 150955Z AUTO 00000KT 5SM BR BKN002 OVC010 19/18 A2982 RMK AO2
                 T01850178 =
2018-08-15 05:35 METAR K1P1 150935Z AUTO 00000KT 7SM OVC010 19/18 A2982 RMK AO2 T01850178 =
2018-08-15 05:15 METAR K1P1 150915Z AUTO 00000KT 5SM BR SCT003 OVC010 19/18 A2982 RMK AO2
                 T01860180 =
2018-08-15 04:55 METAR K1P1 150855Z AUTO 00000KT 5SM BR BKN001 OVC009 19/18 A2982 RMK AO2
                 T01860180 =
2018-08-15 04:35 METAR K1P1 150835Z AUTO 00000KT 5SM BR BKN001 OVC009 19/18 A2982 RMK AO2
                 T01870180 =
2018-08-15 04:15 METAR K1P1 150815Z AUTO 00000KT 5SM BR BKN001 OVC009 19/18 A2982 RMK AO2
                 T01850178 =
2018-08-15 03:55 METAR K1P1 150755Z AUTO 00000KT 7SM BKN004 OVC009 19/18 A2982 RMK AO2 T01870180
                 =
2018-08-15 03:35 METAR K1P1 150735Z AUTO 00000KT 5SM BR BKN002 OVC008 19/18 A2982 RMK AO2
                 T01850178 =
2018-08-15 03:15 METAR K1P1 150715Z AUTO 00000KT 4SM BR SCT002 BKN019 BKN028 19/18 A2982 RMK AO2
                 T01880181 =
2018-08-15 02:55 METAR K1P1 150655Z AUTO 00000KT 2 1/2SM BR BKN002 OVC021 19/18 A2983 RMK AO2 VIS
                 1 1/2V5 T01900183 =
2018-08-15 02:35 METAR K1P1 150635Z AUTO 00000KT 1SM BR BKN002 OVC019 19/18 A2983 RMK AO2
                 T01900183 =
2018-08-15 02:15 METAR K1P1 150615Z AUTO 00000KT 1 1/4SM BR OVC002 19/18 A2983 RMK AO2 T01900182
                 =
2018-08-15 01:55 METAR K1P1 150555Z AUTO 00000KT 2 1/2SM BR BKN002 OVC019 19/18 A2984 RMK AO2
                 T01900182 10218 20182 =
2018-08-15 01:35 METAR K1P1 150535Z AUTO 00000KT 2SM BR OVC002 19/18 A2984 RMK AO2 VIS 1V4
                 T01900182 =
2018-08-15 01:15 METAR K1P1 150515Z AUTO 00000KT 1 1/4SM BR BKN002 OVC020 19/18 A2984 RMK AO2
                 T01900182 =
2018-08-15 00:55 METAR K1P1 150455Z AUTO 00000KT 1SM BR OVC002 19/18 A2984 RMK AO2 T01890181 =
2018-08-15 00:35 METAR K1P1 150435Z AUTO 00000KT 1 3/4SM BR OVC002 19/18 A2985 RMK AO2 T01870180
                 =
2018-08-15 00:15 METAR K1P1 150415Z AUTO 00000KT 4SM BR BKN002 BKN022 OVC043 19/18 A2985 RMK AO2
                 T01870180 =

Support USWX by starting your Amazon purchase here.